Terminal Aerodrome Forecast
Issued by NWS

Home | Current Version | Previous Version | Text Only | Print | Product List | Glossary On
Versions: 1 2 3 4 5 6 7 8 9 10 11 12 13 14 15 16 17 18 19 20 21 22
000
FTUS45 KRIW 220600 AAA
TAFJAC
TAF AMD
KJAC 220610Z 2206/2306 VRB06KT P6SM VCFG FEW005 BKN020
      TEMPO 2207/2209 2SM BR BKN005
     FM221100 VRB04KT P6SM VCFG SCT005 BKN060
     FM221600 VRB05KT P6SM SCT060 BKN080
     FM221900 19010G18KT P6SM VCTS SCT040CB BKN060
     FM222200 18008KT P6SM -SHRA BKN035
     FM230300 18007KT P6SM BKN040
      AMD LTD TO CLD VIS AND WIND=

USA.gov is the U.S. government's official web portal to all federal, state and local government web resources and services.